sensor_id;sensor_type;location;lat;lon;timestamp;P1;durP1;ratioP1;P2;durP2;ratioP2
74793;SDS011;63320;50.768;6.724;2024-02-21T00:02:18;15.13;;;5.25;;
74793;SDS011;63320;50.768;6.724;2024-02-21T00:04:44;16.35;;;6.10;;
74793;SDS011;63320;50.768;6.724;2024-02-21T00:07:09;16.00;;;5.53;;
74793;SDS011;63320;50.768;6.724;2024-02-21T00:09:34;14.35;;;5.53;;
74793;SDS011;63320;50.768;6.724;2024-02-21T00:12:00;13.05;;;4.38;;
74793;SDS011;63320;50.768;6.724;2024-02-21T00:14:25;17.33;;;5.88;;
74793;SDS011;63320;50.768;6.724;2024-02-21T00:16:50;11.38;;;5.28;;
74793;SDS011;63320;50.768;6.724;2024-02-21T00:19:17;12.32;;;5.07;;
74793;SDS011;63320;50.768;6.724;2024-02-21T00:21:43;11.90;;;4.90;;
74793;SDS011;63320;50.768;6.724;2024-02-21T00:24:08;17.60;;;5.35;;
74793;SDS011;63320;50.768;6.724;2024-02-21T00:26:33;12.90;;;5.38;;
74793;SDS011;63320;50.768;6.724;2024-02-21T00:28:59;17.00;;;5.00;;
74793;SDS011;63320;50.768;6.724;2024-02-21T00:31:24;13.55;;;5.03;;
74793;SDS011;63320;50.768;6.724;2024-02-21T00:33:50;13.48;;;4.90;;
74793;SDS011;63320;50.768;6.724;2024-02-21T00:36:16;13.90;;;5.10;;
74793;SDS011;63320;50.768;6.724;2024-02-21T00:38:42;14.25;;;5.13;;
74793;SDS011;63320;50.768;6.724;2024-02-21T00:41:07;14.48;;;5.20;;
74793;SDS011;63320;50.768;6.724;2024-02-21T00:43:32;16.92;;;5.22;;
74793;SDS011;63320;50.768;6.724;2024-02-21T00:45:58;13.85;;;5.07;;
74793;SDS011;63320;50.768;6.724;2024-02-21T00:48:23;14.35;;;5.65;;
74793;SDS011;63320;50.768;6.724;2024-02-21T00:50:49;13.85;;;5.13;;
74793;SDS011;63320;50.768;6.724;2024-02-21T00:53:15;16.25;;;5.80;;
74793;SDS011;63320;50.768;6.724;2024-02-21T00:55:41;12.32;;;4.57;;
74793;SDS011;63320;50.768;6.724;2024-02-21T00:58:06;13.10;;;4.88;;
74793;SDS011;63320;50.768;6.724;2024-02-21T01:00:31;15.93;;;5.13;;
74793;SDS011;63320;50.768;6.724;2024-02-21T01:02:57;15.75;;;5.38;;
74793;SDS011;63320;50.768;6.724;2024-02-21T01:05:22;14.30;;;5.25;;
74793;SDS011;63320;50.768;6.724;2024-02-21T01:07:48;12.65;;;5.05;;
74793;SDS011;63320;50.768;6.724;2024-02-21T01:10:14;14.88;;;5.65;;
74793;SDS011;63320;50.768;6.724;2024-02-21T01:12:40;16.95;;;5.78;;
74793;SDS011;63320;50.768;6.724;2024-02-21T01:15:05;13.85;;;4.72;;
74793;SDS011;63320;50.768;6.724;2024-02-21T01:17:31;16.42;;;5.35;;
74793;SDS011;63320;50.768;6.724;2024-02-21T01:19:57;15.40;;;5.15;;
74793;SDS011;63320;50.768;6.724;2024-02-21T01:22:22;11.25;;;4.57;;
74793;SDS011;63320;50.768;6.724;2024-02-21T01:24:47;13.23;;;5.00;;
74793;SDS011;63320;50.768;6.724;2024-02-21T01:27:14;15.52;;;5.50;;
74793;SDS011;63320;50.768;6.724;2024-02-21T01:29:39;14.50;;;4.80;;
74793;SDS011;63320;50.768;6.724;2024-02-21T01:32:05;13.38;;;4.97;;
74793;SDS011;63320;50.768;6.724;2024-02-21T01:34:31;14.32;;;4.53;;
74793;SDS011;63320;50.768;6.724;2024-02-21T01:36:56;15.85;;;4.65;;
74793;SDS011;63320;50.768;6.724;2024-02-21T01:39:22;13.52;;;4.50;;
74793;SDS011;63320;50.768;6.724;2024-02-21T01:41:47;17.33;;;5.05;;
74793;SDS011;63320;50.768;6.724;2024-02-21T01:44:14;15.23;;;4.95;;
74793;SDS011;63320;50.768;6.724;2024-02-21T01:46:39;15.63;;;4.47;;
74793;SDS011;63320;50.768;6.724;2024-02-21T01:49:05;14.52;;;5.13;;
74793;SDS011;63320;50.768;6.724;2024-02-21T01:51:30;15.13;;;5.10;;
74793;SDS011;63320;50.768;6.724;2024-02-21T01:53:56;10.93;;;4.97;;
74793;SDS011;63320;50.768;6.724;2024-02-21T01:56:23;15.98;;;4.30;;
74793;SDS011;63320;50.768;6.724;2024-02-21T01:58:49;15.35;;;5.15;;
74793;SDS011;63320;50.768;6.724;2024-02-21T02:01:17;12.10;;;4.78;;
74793;SDS011;63320;50.768;6.724;2024-02-21T02:03:42;12.00;;;4.80;;
74793;SDS011;63320;50.768;6.724;2024-02-21T02:06:10;17.50;;;5.18;;
74793;SDS011;63320;50.768;6.724;2024-02-21T02:08:35;15.30;;;4.32;;
74793;SDS011;63320;50.768;6.724;2024-02-21T02:11:01;12.75;;;4.60;;
74793;SDS011;63320;50.768;6.724;2024-02-21T02:13:27;15.07;;;4.45;;
74793;SDS011;63320;50.768;6.724;2024-02-21T02:15:52;15.68;;;4.97;;
74793;SDS011;63320;50.768;6.724;2024-02-21T02:18:19;12.63;;;4.15;;
74793;SDS011;63320;50.768;6.724;2024-02-21T02:20:45;14.98;;;4.75;;
74793;SDS011;63320;50.768;6.724;2024-02-21T02:23:12;18.40;;;5.00;;
74793;SDS011;63320;50.768;6.724;2024-02-21T02:25:43;13.55;;;4.60;;
74793;SDS011;63320;50.768;6.724;2024-02-21T02:28:10;15.30;;;4.60;;
74793;SDS011;63320;50.768;6.724;2024-02-21T02:30:36;13.93;;;5.22;;
74793;SDS011;63320;50.768;6.724;2024-02-21T02:33:01;15.40;;;4.45;;
74793;SDS011;63320;50.768;6.724;2024-02-21T02:35:26;15.15;;;4.80;;
74793;SDS011;63320;50.768;6.724;2024-02-21T02:37:52;14.25;;;3.90;;
74793;SDS011;63320;50.768;6.724;2024-02-21T02:40:19;15.82;;;4.20;;
74793;SDS011;63320;50.768;6.724;2024-02-21T02:42:44;18.63;;;5.43;;
74793;SDS011;63320;50.768;6.724;2024-02-21T02:45:09;15.13;;;4.38;;
74793;SDS011;63320;50.768;6.724;2024-02-21T02:47:35;16.20;;;4.47;;
74793;SDS011;63320;50.768;6.724;2024-02-21T02:50:00;13.90;;;4.72;;
74793;SDS011;63320;50.768;6.724;2024-02-21T02:52:26;16.38;;;4.80;;
74793;SDS011;63320;50.768;6.724;2024-02-21T02:54:51;13.75;;;4.53;;
74793;SDS011;63320;50.768;6.724;2024-02-21T02:57:18;12.52;;;3.75;;
74793;SDS011;63320;50.768;6.724;2024-02-21T02:59:46;14.02;;;4.13;;
74793;SDS011;63320;50.768;6.724;2024-02-21T03:02:12;10.20;;;4.05;;
74793;SDS011;63320;50.768;6.724;2024-02-21T03:04:39;18.58;;;4.38;;
74793;SDS011;63320;50.768;6.724;2024-02-21T03:07:04;15.52;;;4.40;;
74793;SDS011;63320;50.768;6.724;2024-02-21T03:09:31;13.75;;;4.82;;
74793;SDS011;63320;50.768;6.724;2024-02-21T03:11:56;15.32;;;4.28;;
74793;SDS011;63320;50.768;6.724;2024-02-21T03:14:23;15.27;;;4.28;;
74793;SDS011;63320;50.768;6.724;2024-02-21T03:16:51;13.95;;;4.38;;
74793;SDS011;63320;50.768;6.724;2024-02-21T03:19:16;10.20;;;4.00;;
74793;SDS011;63320;50.768;6.724;2024-02-21T03:21:41;13.38;;;4.03;;
74793;SDS011;63320;50.768;6.724;2024-02-21T03:24:07;15.43;;;4.18;;
74793;SDS011;63320;50.768;6.724;2024-02-21T03:26:32;15.07;;;3.95;;
74793;SDS011;63320;50.768;6.724;2024-02-21T03:28:58;11.90;;;3.72;;
74793;SDS011;63320;50.768;6.724;2024-02-21T03:31:24;13.43;;;4.50;;
74793;SDS011;63320;50.768;6.724;2024-02-21T03:33:50;13.40;;;4.07;;
74793;SDS011;63320;50.768;6.724;2024-02-21T03:36:15;14.43;;;4.47;;
74793;SDS011;63320;50.768;6.724;2024-02-21T03:38:40;16.15;;;4.40;;
74793;SDS011;63320;50.768;6.724;2024-02-21T03:41:06;14.98;;;3.97;;
74793;SDS011;63320;50.768;6.724;2024-02-21T03:43:31;16.08;;;5.10;;
74793;SDS011;63320;50.768;6.724;2024-02-21T03:45:57;12.88;;;4.32;;
74793;SDS011;63320;50.768;6.724;2024-02-21T03:48:23;13.25;;;4.88;;
74793;SDS011;63320;50.768;6.724;2024-02-21T03:50:49;12.07;;;4.10;;
74793;SDS011;63320;50.768;6.724;2024-02-21T03:53:15;12.65;;;4.55;;
74793;SDS011;63320;50.768;6.724;2024-02-21T03:55:40;13.77;;;4.70;;
74793;SDS011;63320;50.768;6.724;2024-02-21T03:58:05;15.00;;;4.88;;
74793;SDS011;63320;50.768;6.724;2024-02-21T04:00:31;16.42;;;4.50;;
74793;SDS011;63320;50.768;6.724;2024-02-21T04:02:56;14.55;;;4.70;;
74793;SDS011;63320;50.768;6.724;2024-02-21T04:05:23;11.55;;;4.35;;
74793;SDS011;63320;50.768;6.724;2024-02-21T04:07:48;12.35;;;3.90;;
74793;SDS011;63320;50.768;6.724;2024-02-21T04:10:14;10.13;;;3.88;;
74793;SDS011;63320;50.768;6.724;2024-02-21T04:12:39;10.55;;;4.03;;
74793;SDS011;63320;50.768;6.724;2024-02-21T04:15:05;11.80;;;3.75;;
74793;SDS011;63320;50.768;6.724;2024-02-21T04:17:30;14.57;;;4.30;;
74793;SDS011;63320;50.768;6.724;2024-02-21T04:20:01;13.07;;;3.78;;
74793;SDS011;63320;50.768;6.724;2024-02-21T04:22:30;15.75;;;4.57;;
74793;SDS011;63320;50.768;6.724;2024-02-21T04:24:56;10.20;;;4.10;;
74793;SDS011;63320;50.768;6.724;2024-02-21T04:27:21;12.10;;;3.58;;
74793;SDS011;63320;50.768;6.724;2024-02-21T04:29:46;12.70;;;4.40;;
74793;SDS011;63320;50.768;6.724;2024-02-21T04:32:13;11.45;;;3.88;;
74793;SDS011;63320;50.768;6.724;2024-02-21T04:34:38;12.50;;;4.05;;
74793;SDS011;63320;50.768;6.724;2024-02-21T04:37:06;13.25;;;3.65;;
74793;SDS011;63320;50.768;6.724;2024-02-21T04:39:32;12.98;;;4.13;;
74793;SDS011;63320;50.768;6.724;2024-02-21T04:41:58;13.88;;;3.75;;
74793;SDS011;63320;50.768;6.724;2024-02-21T04:44:23;11.85;;;4.10;;
74793;SDS011;63320;50.768;6.724;2024-02-21T04:46:48;12.70;;;4.03;;
74793;SDS011;63320;50.768;6.724;2024-02-21T04:49:14;13.77;;;4.07;;
74793;SDS011;63320;50.768;6.724;2024-02-21T04:51:41;10.73;;;3.92;;
74793;SDS011;63320;50.768;6.724;2024-02-21T04:54:06;12.70;;;3.75;;
74793;SDS011;63320;50.768;6.724;2024-02-21T04:56:33;10.63;;;3.90;;
74793;SDS011;63320;50.768;6.724;2024-02-21T04:58:59;9.80;;;3.58;;
74793;SDS011;63320;50.768;6.724;2024-02-21T05:01:25;11.00;;;3.20;;
74793;SDS011;63320;50.768;6.724;2024-02-21T05:03:50;11.05;;;4.00;;
74793;SDS011;63320;50.768;6.724;2024-02-21T05:06:15;13.90;;;4.38;;
74793;SDS011;63320;50.768;6.724;2024-02-21T05:08:41;10.60;;;3.40;;
74793;SDS011;63320;50.768;6.724;2024-02-21T05:11:06;13.65;;;4.32;;
74793;SDS011;63320;50.768;6.724;2024-02-21T05:13:33;10.45;;;4.00;;
74793;SDS011;63320;50.768;6.724;2024-02-21T05:15:58;11.38;;;3.75;;
74793;SDS011;63320;50.768;6.724;2024-02-21T05:18:24;11.55;;;4.00;;
74793;SDS011;63320;50.768;6.724;2024-02-21T05:20:49;9.35;;;3.50;;
74793;SDS011;63320;50.768;6.724;2024-02-21T05:23:15;10.05;;;3.80;;
74793;SDS011;63320;50.768;6.724;2024-02-21T05:25:40;9.95;;;3.28;;
74793;SDS011;63320;50.768;6.724;2024-02-21T05:28:05;12.43;;;3.72;;
74793;SDS011;63320;50.768;6.724;2024-02-21T05:30:34;12.05;;;4.25;;
74793;SDS011;63320;50.768;6.724;2024-02-21T05:33:03;9.50;;;3.90;;
74793;SDS011;63320;50.768;6.724;2024-02-21T05:35:29;13.27;;;3.92;;
74793;SDS011;63320;50.768;6.724;2024-02-21T05:37:54;9.55;;;3.63;;
74793;SDS011;63320;50.768;6.724;2024-02-21T05:40:20;8.85;;;3.65;;
74793;SDS011;63320;50.768;6.724;2024-02-21T05:42:45;12.73;;;3.83;;
74793;SDS011;63320;50.768;6.724;2024-02-21T05:45:11;11.40;;;4.07;;
74793;SDS011;63320;50.768;6.724;2024-02-21T05:47:38;10.90;;;3.40;;
74793;SDS011;63320;50.768;6.724;2024-02-21T05:50:03;12.00;;;3.97;;
74793;SDS011;63320;50.768;6.724;2024-02-21T05:52:29;10.63;;;3.30;;
74793;SDS011;63320;50.768;6.724;2024-02-21T05:54:55;11.00;;;4.20;;
74793;SDS011;63320;50.768;6.724;2024-02-21T05:57:20;11.07;;;3.70;;
74793;SDS011;63320;50.768;6.724;2024-02-21T05:59:45;10.80;;;3.58;;
74793;SDS011;63320;50.768;6.724;2024-02-21T06:02:11;9.98;;;3.58;;
74793;SDS011;63320;50.768;6.724;2024-02-21T06:04:37;10.60;;;3.33;;
74793;SDS011;63320;50.768;6.724;2024-02-21T06:07:03;13.45;;;3.60;;
74793;SDS011;63320;50.768;6.724;2024-02-21T06:09:28;10.35;;;3.38;;
74793;SDS011;63320;50.768;6.724;2024-02-21T06:11:54;11.10;;;3.30;;
74793;SDS011;63320;50.768;6.724;2024-02-21T06:14:19;9.98;;;2.95;;
74793;SDS011;63320;50.768;6.724;2024-02-21T06:16:45;10.63;;;3.65;;
74793;SDS011;63320;50.768;6.724;2024-02-21T06:19:10;7.93;;;3.05;;
74793;SDS011;63320;50.768;6.724;2024-02-21T06:21:37;12.93;;;3.30;;
74793;SDS011;63320;50.768;6.724;2024-02-21T06:24:02;10.60;;;3.53;;
74793;SDS011;63320;50.768;6.724;2024-02-21T06:26:28;9.15;;;3.20;;
74793;SDS011;63320;50.768;6.724;2024-02-21T06:28:54;9.63;;;3.15;;
74793;SDS011;63320;50.768;6.724;2024-02-21T06:31:19;12.50;;;3.40;;
74793;SDS011;63320;50.768;6.724;2024-02-21T06:33:44;12.07;;;3.30;;
74793;SDS011;63320;50.768;6.724;2024-02-21T06:36:10;8.70;;;3.30;;
74793;SDS011;63320;50.768;6.724;2024-02-21T06:38:36;9.93;;;3.10;;
74793;SDS011;63320;50.768;6.724;2024-02-21T06:41:02;9.90;;;3.28;;
74793;SDS011;63320;50.768;6.724;2024-02-21T06:43:27;10.30;;;3.10;;
74793;SDS011;63320;50.768;6.724;2024-02-21T06:45:53;10.05;;;3.60;;
74793;SDS011;63320;50.768;6.724;2024-02-21T06:48:18;13.65;;;3.97;;
74793;SDS011;63320;50.768;6.724;2024-02-21T06:50:44;10.45;;;3.35;;
74793;SDS011;63320;50.768;6.724;2024-02-21T06:53:09;10.77;;;3.47;;
74793;SDS011;63320;50.768;6.724;2024-02-21T06:55:36;8.95;;;3.30;;
74793;SDS011;63320;50.768;6.724;2024-02-21T06:58:01;13.07;;;3.50;;
74793;SDS011;63320;50.768;6.724;2024-02-21T07:00:27;10.10;;;3.13;;
74793;SDS011;63320;50.768;6.724;2024-02-21T07:02:52;12.88;;;3.80;;
74793;SDS011;63320;50.768;6.724;2024-02-21T07:05:18;22.63;;;4.10;;
74793;SDS011;63320;50.768;6.724;2024-02-21T07:07:43;8.80;;;3.25;;
74793;SDS011;63320;50.768;6.724;2024-02-21T07:10:09;10.32;;;3.22;;
74793;SDS011;63320;50.768;6.724;2024-02-21T07:12:36;10.95;;;4.00;;
74793;SDS011;63320;50.768;6.724;2024-02-21T07:15:01;11.38;;;3.22;;
74793;SDS011;63320;50.768;6.724;2024-02-21T07:17:27;11.38;;;4.10;;
74793;SDS011;63320;50.768;6.724;2024-02-21T07:19:52;11.80;;;3.53;;
74793;SDS011;63320;50.768;6.724;2024-02-21T07:22:18;13.32;;;3.83;;
74793;SDS011;63320;50.768;6.724;2024-02-21T07:24:43;11.63;;;4.18;;
74793;SDS011;63320;50.768;6.724;2024-02-21T07:27:09;10.52;;;3.53;;
74793;SDS011;63320;50.768;6.724;2024-02-21T07:29:35;10.65;;;3.40;;
74793;SDS011;63320;50.768;6.724;2024-02-21T07:32:01;12.02;;;3.60;;
74793;SDS011;63320;50.768;6.724;2024-02-21T07:34:27;13.10;;;4.68;;
74793;SDS011;63320;50.768;6.724;2024-02-21T07:36:52;13.23;;;4.25;;
74793;SDS011;63320;50.768;6.724;2024-02-21T07:39:18;13.20;;;5.05;;
74793;SDS011;63320;50.768;6.724;2024-02-21T07:41:43;22.75;;;4.10;;
74793;SDS011;63320;50.768;6.724;2024-02-21T07:44:09;11.85;;;3.80;;
74793;SDS011;63320;50.768;6.724;2024-02-21T07:46:35;13.50;;;3.78;;
74793;SDS011;63320;50.768;6.724;2024-02-21T07:49:01;13.95;;;3.33;;
74793;SDS011;63320;50.768;6.724;2024-02-21T07:51:27;9.02;;;3.40;;
74793;SDS011;63320;50.768;6.724;2024-02-21T07:53:52;11.65;;;3.97;;
74793;SDS011;63320;50.768;6.724;2024-02-21T07:56:18;12.00;;;4.07;;
74793;SDS011;63320;50.768;6.724;2024-02-21T07:58:43;15.88;;;3.83;;
74793;SDS011;63320;50.768;6.724;2024-02-21T08:01:10;15.05;;;4.57;;
74793;SDS011;63320;50.768;6.724;2024-02-21T08:03:37;12.93;;;3.97;;
74793;SDS011;63320;50.768;6.724;2024-02-21T08:06:03;11.13;;;3.33;;
74793;SDS011;63320;50.768;6.724;2024-02-21T08:08:29;13.35;;;3.60;;
74793;SDS011;63320;50.768;6.724;2024-02-21T08:10:54;12.98;;;4.40;;
74793;SDS011;63320;50.768;6.724;2024-02-21T08:13:20;16.40;;;4.22;;
74793;SDS011;63320;50.768;6.724;2024-02-21T08:15:45;12.18;;;4.05;;
74793;SDS011;63320;50.768;6.724;2024-02-21T08:18:10;13.60;;;3.78;;
74793;SDS011;63320;50.768;6.724;2024-02-21T08:20:37;7.07;;;3.20;;
74793;SDS011;63320;50.768;6.724;2024-02-21T08:23:03;11.98;;;3.35;;
74793;SDS011;63320;50.768;6.724;2024-02-21T08:25:28;11.13;;;2.90;;
74793;SDS011;63320;50.768;6.724;2024-02-21T08:27:57;9.27;;;2.60;;
74793;SDS011;63320;50.768;6.724;2024-02-21T08:30:24;9.95;;;2.88;;
74793;SDS011;63320;50.768;6.724;2024-02-21T08:32:49;8.25;;;2.30;;
74793;SDS011;63320;50.768;6.724;2024-02-21T08:35:15;9.35;;;3.22;;
74793;SDS011;63320;50.768;6.724;2024-02-21T08:37:42;12.00;;;3.40;;
74793;SDS011;63320;50.768;6.724;2024-02-21T08:40:08;7.45;;;2.78;;
74793;SDS011;63320;50.768;6.724;2024-02-21T08:42:34;7.45;;;2.55;;
74793;SDS011;63320;50.768;6.724;2024-02-21T08:44:59;10.02;;;3.00;;
74793;SDS011;63320;50.768;6.724;2024-02-21T08:47:24;8.30;;;2.97;;
74793;SDS011;63320;50.768;6.724;2024-02-21T08:49:50;8.65;;;2.60;;
74793;SDS011;63320;50.768;6.724;2024-02-21T08:52:15;9.93;;;3.30;;
74793;SDS011;63320;50.768;6.724;2024-02-21T08:54:42;11.27;;;2.95;;
74793;SDS011;63320;50.768;6.724;2024-02-21T08:57:07;13.85;;;3.63;;
74793;SDS011;63320;50.768;6.724;2024-02-21T08:59:33;11.77;;;3.28;;
74793;SDS011;63320;50.768;6.724;2024-02-21T09:01:58;12.02;;;3.42;;
74793;SDS011;63320;50.768;6.724;2024-02-21T09:04:23;13.07;;;3.53;;
74793;SDS011;63320;50.768;6.724;2024-02-21T09:06:49;11.20;;;3.28;;
74793;SDS011;63320;50.768;6.724;2024-02-21T09:09:14;14.35;;;3.10;;
74793;SDS011;63320;50.768;6.724;2024-02-21T09:11:41;9.35;;;2.88;;
74793;SDS011;63320;50.768;6.724;2024-02-21T09:14:06;20.13;;;3.95;;
74793;SDS011;63320;50.768;6.724;2024-02-21T09:16:32;7.93;;;2.92;;
74793;SDS011;63320;50.768;6.724;2024-02-21T09:18:57;9.68;;;2.70;;
74793;SDS011;63320;50.768;6.724;2024-02-21T09:21:23;11.40;;;2.95;;
74793;SDS011;63320;50.768;6.724;2024-02-21T09:23:48;9.15;;;3.03;;
74793;SDS011;63320;50.768;6.724;2024-02-21T09:26:14;9.85;;;2.88;;
74793;SDS011;63320;50.768;6.724;2024-02-21T09:28:40;10.18;;;3.03;;
74793;SDS011;63320;50.768;6.724;2024-02-21T09:31:06;12.43;;;2.55;;
74793;SDS011;63320;50.768;6.724;2024-02-21T09:33:31;9.80;;;2.60;;
74793;SDS011;63320;50.768;6.724;2024-02-21T09:35:57;9.55;;;2.60;;
74793;SDS011;63320;50.768;6.724;2024-02-21T09:38:22;12.90;;;3.35;;
74793;SDS011;63320;50.768;6.724;2024-02-21T09:40:47;11.95;;;3.05;;
74793;SDS011;63320;50.768;6.724;2024-02-21T09:43:23;9.15;;;2.60;;
74793;SDS011;63320;50.768;6.724;2024-02-21T09:45:50;15.13;;;3.22;;
74793;SDS011;63320;50.768;6.724;2024-02-21T09:48:23;11.15;;;2.97;;
74793;SDS011;63320;50.768;6.724;2024-02-21T09:50:55;8.60;;;2.53;;
74793;SDS011;63320;50.768;6.724;2024-02-21T09:53:24;8.93;;;2.60;;
74793;SDS011;63320;50.768;6.724;2024-02-21T09:55:49;11.90;;;2.30;;
74793;SDS011;63320;50.768;6.724;2024-02-21T09:58:15;9.07;;;2.67;;
74793;SDS011;63320;50.768;6.724;2024-02-21T10:00:41;7.35;;;2.20;;
74793;SDS011;63320;50.768;6.724;2024-02-21T10:03:08;10.82;;;2.17;;
74793;SDS011;63320;50.768;6.724;2024-02-21T10:05:33;10.82;;;2.80;;
74793;SDS011;63320;50.768;6.724;2024-02-21T10:07:59;10.32;;;2.83;;
74793;SDS011;63320;50.768;6.724;2024-02-21T10:10:25;8.25;;;2.40;;
74793;SDS011;63320;50.768;6.724;2024-02-21T10:12:50;7.75;;;2.60;;
74793;SDS011;63320;50.768;6.724;2024-02-21T10:15:19;8.48;;;2.47;;
74793;SDS011;63320;50.768;6.724;2024-02-21T10:17:45;7.43;;;2.10;;
74793;SDS011;63320;50.768;6.724;2024-02-21T10:20:13;11.23;;;2.50;;
74793;SDS011;63320;50.768;6.724;2024-02-21T10:22:38;10.30;;;2.10;;
74793;SDS011;63320;50.768;6.724;2024-02-21T10:25:06;10.75;;;2.72;;
74793;SDS011;63320;50.768;6.724;2024-02-21T10:27:32;7.18;;;2.38;;
74793;SDS011;63320;50.768;6.724;2024-02-21T10:29:57;15.25;;;2.25;;
74793;SDS011;63320;50.768;6.724;2024-02-21T10:32:23;10.70;;;2.28;;
74793;SDS011;63320;50.768;6.724;2024-02-21T10:34:49;9.63;;;2.53;;
74793;SDS011;63320;50.768;6.724;2024-02-21T10:37:15;9.77;;;2.38;;
74793;SDS011;63320;50.768;6.724;2024-02-21T10:39:41;9.70;;;2.53;;
74793;SDS011;63320;50.768;6.724;2024-02-21T10:42:07;10.52;;;2.38;;
74793;SDS011;63320;50.768;6.724;2024-02-21T10:44:37;11.13;;;3.15;;
74793;SDS011;63320;50.768;6.724;2024-02-21T10:47:03;10.00;;;2.50;;
74793;SDS011;63320;50.768;6.724;2024-02-21T10:49:33;11.77;;;2.75;;
74793;SDS011;63320;50.768;6.724;2024-02-21T10:52:06;13.68;;;2.95;;
74793;SDS011;63320;50.768;6.724;2024-02-21T10:54:42;8.05;;;2.00;;
74793;SDS011;63320;50.768;6.724;2024-02-21T10:57:10;9.98;;;2.33;;
74793;SDS011;63320;50.768;6.724;2024-02-21T10:59:38;7.10;;;1.88;;
74793;SDS011;63320;50.768;6.724;2024-02-21T11:02:04;9.48;;;2.10;;
74793;SDS011;63320;50.768;6.724;2024-02-21T11:04:30;9.95;;;2.47;;
74793;SDS011;63320;50.768;6.724;2024-02-21T11:06:56;10.50;;;2.10;;
74793;SDS011;63320;50.768;6.724;2024-02-21T11:09:29;9.13;;;2.22;;
74793;SDS011;63320;50.768;6.724;2024-02-21T11:11:56;9.25;;;1.90;;
74793;SDS011;63320;50.768;6.724;2024-02-21T11:14:22;8.13;;;2.22;;
74793;SDS011;63320;50.768;6.724;2024-02-21T11:16:47;7.35;;;2.17;;
74793;SDS011;63320;50.768;6.724;2024-02-21T11:19:18;8.05;;;2.13;;
74793;SDS011;63320;50.768;6.724;2024-02-21T11:21:44;7.57;;;2.03;;
74793;SDS011;63320;50.768;6.724;2024-02-21T11:24:10;9.13;;;2.30;;
74793;SDS011;63320;50.768;6.724;2024-02-21T11:26:36;7.38;;;1.88;;
74793;SDS011;63320;50.768;6.724;2024-02-21T11:29:04;10.93;;;2.08;;
74793;SDS011;63320;50.768;6.724;2024-02-21T11:31:38;10.18;;;2.25;;
74793;SDS011;63320;50.768;6.724;2024-02-21T11:34:04;7.65;;;1.92;;
74793;SDS011;63320;50.768;6.724;2024-02-21T11:36:29;7.70;;;1.98;;
74793;SDS011;63320;50.768;6.724;2024-02-21T11:38:55;7.57;;;2.03;;
74793;SDS011;63320;50.768;6.724;2024-02-21T11:41:28;7.05;;;2.30;;
74793;SDS011;63320;50.768;6.724;2024-02-21T11:43:53;11.05;;;2.60;;
74793;SDS011;63320;50.768;6.724;2024-02-21T11:46:20;8.70;;;2.67;;
74793;SDS011;63320;50.768;6.724;2024-02-21T11:48:46;9.27;;;2.70;;
74793;SDS011;63320;50.768;6.724;2024-02-21T11:51:11;7.55;;;2.40;;
74793;SDS011;63320;50.768;6.724;2024-02-21T11:53:46;7.78;;;2.50;;
74793;SDS011;63320;50.768;6.724;2024-02-21T11:56:13;10.77;;;2.35;;
74793;SDS011;63320;50.768;6.724;2024-02-21T11:58:38;11.73;;;2.47;;
74793;SDS011;63320;50.768;6.724;2024-02-21T12:01:04;9.85;;;2.88;;
74793;SDS011;63320;50.768;6.724;2024-02-21T12:03:31;8.93;;;2.28;;
74793;SDS011;63320;50.768;6.724;2024-02-21T12:05:56;18.60;;;3.42;;
74793;SDS011;63320;50.768;6.724;2024-02-21T12:08:22;10.48;;;2.65;;
74793;SDS011;63320;50.768;6.724;2024-02-21T12:10:48;10.27;;;2.42;;
74793;SDS011;63320;50.768;6.724;2024-02-21T12:13:13;10.05;;;2.35;;
74793;SDS011;63320;50.768;6.724;2024-02-21T12:15:39;6.43;;;2.45;;
74793;SDS011;63320;50.768;6.724;2024-02-21T12:18:04;10.13;;;2.47;;
74793;SDS011;63320;50.768;6.724;2024-02-21T12:20:31;7.57;;;2.47;;
74793;SDS011;63320;50.768;6.724;2024-02-21T12:22:56;7.55;;;2.30;;
74793;SDS011;63320;50.768;6.724;2024-02-21T12:25:25;9.30;;;2.60;;
74793;SDS011;63320;50.768;6.724;2024-02-21T12:27:50;8.23;;;2.55;;
74793;SDS011;63320;50.768;6.724;2024-02-21T12:30:16;10.35;;;2.80;;
74793;SDS011;63320;50.768;6.724;2024-02-21T12:32:41;10.32;;;2.70;;
74793;SDS011;63320;50.768;6.724;2024-02-21T12:35:07;11.68;;;2.53;;
74793;SDS011;63320;50.768;6.724;2024-02-21T12:37:34;29.05;;;3.42;;
74793;SDS011;63320;50.768;6.724;2024-02-21T12:39:59;11.88;;;3.20;;
74793;SDS011;63320;50.768;6.724;2024-02-21T12:42:25;12.07;;;2.65;;
74793;SDS011;63320;50.768;6.724;2024-02-21T12:44:50;15.95;;;2.85;;
74793;SDS011;63320;50.768;6.724;2024-02-21T12:47:16;9.55;;;2.58;;
74793;SDS011;63320;50.768;6.724;2024-02-21T12:49:41;16.30;;;3.13;;
74793;SDS011;63320;50.768;6.724;2024-02-21T12:52:07;10.45;;;2.28;;
74793;SDS011;63320;50.768;6.724;2024-02-21T12:54:33;7.22;;;2.20;;
74793;SDS011;63320;50.768;6.724;2024-02-21T12:56:59;9.82;;;2.78;;
74793;SDS011;63320;50.768;6.724;2024-02-21T12:59:25;10.68;;;2.33;;
74793;SDS011;63320;50.768;6.724;2024-02-21T13:01:50;8.68;;;2.20;;
74793;SDS011;63320;50.768;6.724;2024-02-21T13:04:15;11.77;;;2.92;;
74793;SDS011;63320;50.768;6.724;2024-02-21T13:06:41;9.50;;;2.55;;
74793;SDS011;63320;50.768;6.724;2024-02-21T13:09:06;8.25;;;2.20;;
74793;SDS011;63320;50.768;6.724;2024-02-21T13:11:33;9.00;;;2.50;;
74793;SDS011;63320;50.768;6.724;2024-02-21T13:13:59;10.95;;;3.22;;
74793;SDS011;63320;50.768;6.724;2024-02-21T13:16:24;9.60;;;2.00;;
74793;SDS011;63320;50.768;6.724;2024-02-21T13:18:49;6.50;;;2.05;;
74793;SDS011;63320;50.768;6.724;2024-02-21T13:21:15;8.00;;;2.20;;
74793;SDS011;63320;50.768;6.724;2024-02-21T13:23:40;9.63;;;2.70;;
74793;SDS011;63320;50.768;6.724;2024-02-21T13:26:06;8.02;;;2.28;;
74793;SDS011;63320;50.768;6.724;2024-02-21T13:28:33;10.77;;;2.95;;
74793;SDS011;63320;50.768;6.724;2024-02-21T13:30:58;11.95;;;2.42;;
74793;SDS011;63320;50.768;6.724;2024-02-21T13:33:23;12.55;;;2.80;;
74793;SDS011;63320;50.768;6.724;2024-02-21T13:35:49;9.68;;;2.22;;
74793;SDS011;63320;50.768;6.724;2024-02-21T13:38:14;9.15;;;2.42;;
74793;SDS011;63320;50.768;6.724;2024-02-21T13:40:40;6.22;;;1.95;;
74793;SDS011;63320;50.768;6.724;2024-02-21T13:43:05;11.30;;;2.90;;
74793;SDS011;63320;50.768;6.724;2024-02-21T13:45:32;8.73;;;2.40;;
74793;SDS011;63320;50.768;6.724;2024-02-21T13:47:57;9.73;;;2.33;;
74793;SDS011;63320;50.768;6.724;2024-02-21T13:50:23;7.50;;;2.40;;
74793;SDS011;63320;50.768;6.724;2024-02-21T13:52:54;9.15;;;2.15;;
74793;SDS011;63320;50.768;6.724;2024-02-21T13:55:19;6.45;;;2.10;;
74793;SDS011;63320;50.768;6.724;2024-02-21T13:57:45;7.40;;;2.05;;
74793;SDS011;63320;50.768;6.724;2024-02-21T14:00:10;9.73;;;2.50;;
74793;SDS011;63320;50.768;6.724;2024-02-21T14:02:38;6.60;;;2.50;;
74793;SDS011;63320;50.768;6.724;2024-02-21T14:05:03;8.65;;;2.38;;
74793;SDS011;63320;50.768;6.724;2024-02-21T14:07:29;7.25;;;1.88;;
74793;SDS011;63320;50.768;6.724;2024-02-21T14:09:54;7.57;;;1.75;;
74793;SDS011;63320;50.768;6.724;2024-02-21T14:12:20;8.50;;;2.00;;
74793;SDS011;63320;50.768;6.724;2024-02-21T14:14:45;6.88;;;1.90;;
74793;SDS011;63320;50.768;6.724;2024-02-21T14:17:11;9.00;;;1.92;;
74793;SDS011;63320;50.768;6.724;2024-02-21T14:19:37;6.35;;;2.22;;
74793;SDS011;63320;50.768;6.724;2024-02-21T14:22:03;6.15;;;1.92;;
74793;SDS011;63320;50.768;6.724;2024-02-21T14:24:28;25.70;;;2.88;;
74793;SDS011;63320;50.768;6.724;2024-02-21T14:26:54;8.63;;;1.73;;
74793;SDS011;63320;50.768;6.724;2024-02-21T14:29:19;8.07;;;1.58;;
74793;SDS011;63320;50.768;6.724;2024-02-21T14:31:45;6.68;;;1.50;;